Terminal Aerodrome Forecast
Issued by NWS Omaha/Valley, NE

Home | Current Version | Previous Version | Graphics & Text | Print | Product List | Glossary On
Versions: 1 2 3 4 5 6 7 8 9 10 11 12 13 14 15 16 17 18 19 20 21 22
000
FTUS43 KOAX 131120
TAFOFK
TAF
KOFK 131120Z 1312/1412 34018G27KT P6SM OVC015
     FM131400 01027G35KT 5SM -RA OVC015
     FM132100 36027G35KT 4SM -SN OVC015
     FM140000 36028G35KT P6SM OVC025
     FM140100 35020G26KT P6SM OVC050=

USA.gov is the U.S. government's official web portal to all federal, state and local government web resources and services.